Croeserw, United Kingdom
Current Conditions -  °F | °C
As of 8:50 PM on Thursday 23 Oct 2014 (Local Time) from EGDX Reporting Station
Light Rain Light Rain  
Wind Chill: 57°   Ceiling: 2900
Heat Index: 57°   Visibility: 6mi
Dew Point: 55°   Wind: 14mph
Humidity: 94%   Direction: 240°WSW
Pressure: 30"   Gusts: NA
Location:  51.64°N, 3.64°W
Report Text: EGDX 231950Z AUTO 24012KT 9999 -RADZ FEW011/// SCT014/// BKN029/// 14/13 Q1016
Loading
Personal Weather Stations






























Interactive Weather Map
Tropical Storm Tracking
New forecast layout! Learn more

10-Day Weather Forecast

Advertisements
Track Severe Weather on mobile